createdAt,value
2023-03-31T00:00:30.239Z,32.41
2023-03-31T00:01:33.113Z,13.50
2023-03-31T00:02:35.982Z,23.89
2023-03-31T00:03:39.231Z,27.66
2023-03-31T00:04:42.349Z,30.81
2023-03-31T00:05:45.129Z,34.45
2023-03-31T00:06:47.900Z,13.12
2023-03-31T00:07:50.873Z,9.78
2023-03-31T00:08:53.656Z,19.32
2023-03-31T00:10:07.123Z,19.60
2023-03-31T00:11:01.031Z,38.14
2023-03-31T00:12:03.830Z,15.27
2023-03-31T00:13:06.474Z,4.25
2023-03-31T00:14:09.349Z,7.41
2023-03-31T00:15:12.335Z,7.60
2023-03-31T00:16:15.137Z,20.44
2023-03-31T00:17:17.980Z,9.04
2023-03-31T00:18:20.853Z,6.36
2023-03-31T00:19:23.744Z,2.95
2023-03-31T00:20:26.708Z,3.84
2023-03-31T00:21:29.936Z,7.43
2023-03-31T00:22:33.005Z,8.48
2023-03-31T00:23:35.843Z,2.93
2023-03-31T00:24:38.817Z,8.15
2023-03-31T00:25:41.700Z,8.89
2023-03-31T00:26:44.661Z,11.88
2023-03-31T00:27:47.535Z,3.35
2023-03-31T00:28:50.334Z,4.75
2023-03-31T00:29:53.100Z,4.86
2023-03-31T00:30:56.058Z,7.80
2023-03-31T00:31:58.991Z,5.29
2023-03-31T00:33:02.050Z,4.45
2023-03-31T00:34:04.884Z,3.12
2023-03-31T00:35:07.765Z,2.15
2023-03-31T00:36:10.600Z,4.27
2023-03-31T00:37:13.101Z,7.05
2023-03-31T00:38:15.875Z,4.86
2023-03-31T00:39:18.546Z,5.88
2023-03-31T00:40:21.212Z,3.45
2023-03-31T00:41:23.983Z,2.55
2023-03-31T00:42:26.661Z,2.04
2023-03-31T00:43:29.335Z,4.08
2023-03-31T00:44:31.993Z,5.93
2023-03-31T00:45:34.906Z,3.00
2023-03-31T00:46:37.750Z,7.39
2023-03-31T00:47:40.618Z,2.68
2023-03-31T00:48:43.396Z,2.86
2023-03-31T00:49:46.164Z,2.60
2023-03-31T00:50:49.049Z,5.37
2023-03-31T00:51:51.912Z,6.99
2023-03-31T00:52:54.680Z,4.97
2023-03-31T00:53:57.352Z,3.39
2023-03-31T00:55:00.177Z,4.28
2023-03-31T00:56:03.073Z,6.38
2023-03-31T00:57:06.112Z,5.89
2023-03-31T00:58:08.645Z,5.79
2023-03-31T00:59:11.320Z,2.95
2023-03-31T01:00:13.887Z,2.29
2023-03-31T01:01:16.684Z,3.92
2023-03-31T01:02:19.835Z,3.92
2023-03-31T01:03:22.753Z,4.76
2023-03-31T01:04:25.485Z,5.23
2023-03-31T01:05:28.152Z,7.31
2023-03-31T01:06:30.864Z,5.42
2023-03-31T01:07:33.517Z,5.02
2023-03-31T01:08:36.061Z,16.00
2023-03-31T01:09:38.633Z,6.64
2023-03-31T01:10:41.296Z,3.16
2023-03-31T01:11:43.991Z,2.79
2023-03-31T01:12:46.643Z,3.48
2023-03-31T01:13:49.310Z,1.58
2023-03-31T01:14:51.985Z,3.85
2023-03-31T01:15:54.855Z,9.28
2023-03-31T01:16:57.913Z,6.15
2023-03-31T01:18:01.131Z,4.45
2023-03-31T01:19:03.889Z,4.40
2023-03-31T01:20:06.759Z,3.65
2023-03-31T01:21:09.637Z,2.65
2023-03-31T01:22:12.541Z,2.83
2023-03-31T01:23:15.800Z,11.70
2023-03-31T01:24:18.563Z,23.61
2023-03-31T01:25:21.456Z,2.97
2023-03-31T01:26:24.116Z,3.22
2023-03-31T01:27:26.788Z,3.05
2023-03-31T01:28:29.783Z,2.40
2023-03-31T01:29:32.227Z,1.73
2023-03-31T01:30:34.893Z,2.97
2023-03-31T01:31:37.503Z,2.90
2023-03-31T01:32:40.156Z,1.77
2023-03-31T01:33:42.905Z,3.84
2023-03-31T01:34:45.589Z,12.18
2023-03-31T01:35:48.629Z,2.36
2023-03-31T01:36:51.440Z,4.10
2023-03-31T01:37:54.204Z,2.00
2023-03-31T01:38:57.182Z,3.56
2023-03-31T01:39:59.952Z,2.07
2023-03-31T01:41:02.825Z,2.89
2023-03-31T01:42:05.600Z,5.70
2023-03-31T01:43:08.362Z,3.04
2023-03-31T01:44:11.297Z,3.59
2023-03-31T01:45:14.211Z,5.98
2023-03-31T01:46:17.129Z,3.72
2023-03-31T01:47:19.868Z,12.16
2023-03-31T01:48:22.637Z,4.99
2023-03-31T01:49:25.418Z,2.84
2023-03-31T01:50:28.184Z,4.31
2023-03-31T01:51:31.256Z,2.45
2023-03-31T01:52:34.133Z,3.00
2023-03-31T01:53:37.011Z,2.15
2023-03-31T01:54:39.984Z,3.84
2023-03-31T01:55:42.857Z,3.75
2023-03-31T01:56:45.773Z,2.83
2023-03-31T01:57:48.519Z,3.89
2023-03-31T01:58:51.175Z,3.99
2023-03-31T01:59:54.361Z,2.05
2023-03-31T02:00:57.431Z,2.54
2023-03-31T02:02:00.252Z,2.42
2023-03-31T02:03:03.267Z,1.93
2023-03-31T02:04:05.973Z,2.42
2023-03-31T02:05:08.948Z,3.12
2023-03-31T02:06:11.813Z,2.34
2023-03-31T02:07:14.692Z,2.03
2023-03-31T02:08:18.098Z,2.70
2023-03-31T02:09:20.852Z,6.82
2023-03-31T02:10:24.029Z,10.14
2023-03-31T02:11:27.007Z,3.29
2023-03-31T02:12:29.987Z,2.91
2023-03-31T02:13:32.856Z,1.76
2023-03-31T02:14:35.733Z,5.58
2023-03-31T02:15:39.333Z,4.15
2023-03-31T02:16:42.234Z,4.54
2023-03-31T02:17:45.134Z,3.12
2023-03-31T02:18:48.047Z,3.68
2023-03-31T02:19:50.928Z,3.98
2023-03-31T02:20:54.002Z,3.04
2023-03-31T02:21:56.775Z,3.58
2023-03-31T02:22:59.546Z,3.72
2023-03-31T02:24:02.525Z,4.21
2023-03-31T02:25:05.411Z,5.14
2023-03-31T02:26:08.115Z,2.65
2023-03-31T02:27:10.844Z,2.62
2023-03-31T02:28:13.407Z,2.30
2023-03-31T02:29:16.082Z,2.48
2023-03-31T02:30:18.862Z,1.17
2023-03-31T02:31:21.582Z,3.00
2023-03-31T02:32:24.199Z,5.37
2023-03-31T02:33:26.864Z,3.24
2023-03-31T02:34:29.526Z,3.96
2023-03-31T02:35:32.424Z,2.73
2023-03-31T02:36:35.412Z,7.45
2023-03-31T02:37:38.056Z,11.67
2023-03-31T02:38:40.927Z,15.52
2023-03-31T02:39:43.903Z,6.64
2023-03-31T02:40:46.681Z,2.17
2023-03-31T02:41:49.655Z,2.25
2023-03-31T02:42:52.537Z,2.57
2023-03-31T02:43:55.635Z,6.47
2023-03-31T02:44:58.585Z,9.34
2023-03-31T02:46:01.520Z,9.63
2023-03-31T02:47:04.540Z,3.40
2023-03-31T02:48:07.927Z,5.99
2023-03-31T02:49:10.800Z,7.71
2023-03-31T02:50:13.681Z,4.68
2023-03-31T02:51:16.462Z,2.81
2023-03-31T02:52:19.525Z,2.72
2023-03-31T02:53:22.310Z,1.83
2023-03-31T02:54:25.083Z,3.02
2023-03-31T02:55:27.845Z,4.68
2023-03-31T02:56:30.613Z,3.23
2023-03-31T02:57:33.493Z,2.72
2023-03-31T02:58:36.162Z,4.68
2023-03-31T02:59:39.035Z,4.15
2023-03-31T03:00:41.807Z,3.17
2023-03-31T03:01:44.887Z,3.74
2023-03-31T03:02:48.071Z,2.46
2023-03-31T03:03:50.947Z,2.48
2023-03-31T03:04:53.816Z,1.70
2023-03-31T03:05:56.794Z,4.37
2023-03-31T03:06:59.668Z,2.28
2023-03-31T03:08:02.644Z,1.71
2023-03-31T03:09:05.421Z,2.80
2023-03-31T03:10:08.302Z,1.85
2023-03-31T03:11:11.072Z,2.36
2023-03-31T03:12:13.629Z,3.61
2023-03-31T03:13:16.756Z,2.27
2023-03-31T03:14:19.500Z,2.35
2023-03-31T03:15:22.272Z,2.58
2023-03-31T03:16:25.078Z,1.82
2023-03-31T03:17:27.923Z,4.55
2023-03-31T03:18:30.986Z,2.43
2023-03-31T03:19:33.767Z,3.70
2023-03-31T03:20:36.841Z,3.72
2023-03-31T03:21:39.613Z,4.12
2023-03-31T03:22:42.177Z,2.15
2023-03-31T03:23:45.068Z,4.23
2023-03-31T03:24:47.656Z,2.23
2023-03-31T03:25:50.185Z,4.51
2023-03-31T03:26:52.853Z,3.27
2023-03-31T03:27:55.526Z,2.81
2023-03-31T03:28:58.916Z,3.72
2023-03-31T03:30:01.587Z,2.22
2023-03-31T03:31:04.190Z,2.79
2023-03-31T03:32:06.823Z,4.53
2023-03-31T03:33:09.746Z,3.45
2023-03-31T03:34:12.773Z,4.29
2023-03-31T03:35:15.675Z,3.80
2023-03-31T03:36:18.447Z,2.07
2023-03-31T03:37:21.298Z,2.15
2023-03-31T03:38:24.072Z,2.64
2023-03-31T03:39:27.048Z,2.15
2023-03-31T03:40:30.030Z,2.92
2023-03-31T03:41:33.004Z,3.65
2023-03-31T03:42:36.092Z,2.83
2023-03-31T03:43:38.858Z,3.33
2023-03-31T03:44:41.860Z,2.00
2023-03-31T03:45:44.600Z,4.35
2023-03-31T03:46:47.475Z,4.44
2023-03-31T03:47:50.445Z,2.46
2023-03-31T03:48:53.328Z,3.60
2023-03-31T03:49:57.854Z,3.80
2023-03-31T03:51:00.607Z,3.64
2023-03-31T03:52:03.386Z,3.38
2023-03-31T03:53:06.262Z,4.67
2023-03-31T03:54:09.951Z,3.29
2023-03-31T03:55:12.929Z,3.09
2023-03-31T03:56:18.985Z,4.08
2023-03-31T03:57:22.017Z,3.48
2023-03-31T03:58:24.827Z,1.32
2023-03-31T03:59:27.701Z,3.65
2023-03-31T04:00:30.805Z,4.22
2023-03-31T04:01:33.558Z,2.92
2023-03-31T04:02:36.741Z,2.43
2023-03-31T04:03:39.609Z,2.43
2023-03-31T04:04:45.264Z,1.81
2023-03-31T04:05:48.528Z,3.11
2023-03-31T04:06:51.404Z,3.34
2023-03-31T04:07:54.178Z,1.90
2023-03-31T04:08:57.053Z,1.75
2023-03-31T04:09:59.833Z,2.55
2023-03-31T04:11:02.799Z,2.21
2023-03-31T04:12:08.849Z,2.94
2023-03-31T04:13:11.722Z,2.93
2023-03-31T04:14:14.597Z,2.46
2023-03-31T04:15:17.477Z,1.83
2023-03-31T04:16:20.613Z,1.85
2023-03-31T04:17:23.472Z,2.13
2023-03-31T04:18:26.304Z,3.58
2023-03-31T04:19:29.072Z,1.66
2023-03-31T04:20:31.944Z,2.38
2023-03-31T04:21:35.100Z,1.87
2023-03-31T04:22:38.009Z,2.01
2023-03-31T04:23:40.979Z,1.98
2023-03-31T04:24:44.890Z,2.05
2023-03-31T04:25:47.677Z,2.88
2023-03-31T04:26:50.338Z,3.63
2023-03-31T04:27:52.996Z,4.78
2023-03-31T04:28:55.760Z,2.97
2023-03-31T04:29:58.432Z,4.42
2023-03-31T04:31:01.104Z,3.55
2023-03-31T04:32:03.904Z,1.67
2023-03-31T04:33:06.593Z,1.52
2023-03-31T04:34:09.225Z,2.93
2023-03-31T04:35:11.780Z,2.95
2023-03-31T04:36:14.519Z,4.27
2023-03-31T04:37:17.122Z,1.78
2023-03-31T04:38:19.794Z,1.84
2023-03-31T04:39:22.460Z,2.58
2023-03-31T04:40:25.145Z,2.52
2023-03-31T04:41:27.702Z,1.86
2023-03-31T04:42:30.671Z,2.89
2023-03-31T04:43:33.339Z,3.23
2023-03-31T04:44:36.217Z,2.29
2023-03-31T04:45:38.794Z,1.98
2023-03-31T04:46:41.456Z,3.25
2023-03-31T04:47:44.173Z,2.15
2023-03-31T04:48:46.926Z,3.03
2023-03-31T04:49:49.707Z,2.48
2023-03-31T04:50:52.550Z,3.56
2023-03-31T04:51:55.322Z,3.78
2023-03-31T04:52:58.705Z,2.02
2023-03-31T04:54:01.594Z,2.18
2023-03-31T04:55:04.452Z,2.25
2023-03-31T04:56:07.451Z,1.31
2023-03-31T04:57:10.458Z,1.36
2023-03-31T04:58:13.494Z,2.15
2023-03-31T04:59:16.053Z,2.58
2023-03-31T05:00:18.946Z,3.96
2023-03-31T05:01:21.828Z,1.15
2023-03-31T05:02:25.596Z,1.60
2023-03-31T05:03:28.841Z,1.73
2023-03-31T05:04:31.760Z,2.83
2023-03-31T05:05:34.742Z,2.22
2023-03-31T05:06:37.612Z,2.55
2023-03-31T05:07:40.488Z,5.68
2023-03-31T05:08:43.781Z,2.63
2023-03-31T05:09:46.650Z,2.45
2023-03-31T05:10:49.739Z,2.46
2023-03-31T05:11:52.600Z,3.53
2023-03-31T05:12:55.500Z,3.71
2023-03-31T05:13:58.360Z,1.77
2023-03-31T05:15:01.230Z,1.54
2023-03-31T05:16:04.445Z,2.52
2023-03-31T05:17:07.803Z,2.58
2023-03-31T05:18:10.667Z,4.56
2023-03-31T05:19:13.455Z,2.13
2023-03-31T05:20:16.014Z,2.68
2023-03-31T05:21:18.679Z,2.28
2023-03-31T05:22:21.369Z,2.64
2023-03-31T05:23:24.032Z,1.47
2023-03-31T05:24:26.705Z,1.48
2023-03-31T05:25:29.369Z,3.07
2023-03-31T05:26:32.040Z,1.61
2023-03-31T05:27:34.812Z,2.98
2023-03-31T05:28:37.680Z,0.96
2023-03-31T05:29:40.582Z,1.53
2023-03-31T05:30:43.430Z,2.95
2023-03-31T05:31:46.467Z,1.72
2023-03-31T05:32:49.335Z,1.38
2023-03-31T05:33:52.267Z,2.05
2023-03-31T05:34:55.240Z,2.65
2023-03-31T05:35:58.141Z,3.51
2023-03-31T05:37:00.983Z,1.68
2023-03-31T05:38:03.766Z,3.79
2023-03-31T05:39:06.632Z,2.58
2023-03-31T05:40:09.620Z,1.44
2023-03-31T05:41:12.480Z,2.92
2023-03-31T05:42:15.281Z,1.68
2023-03-31T05:43:18.227Z,2.63
2023-03-31T05:44:20.924Z,2.02
2023-03-31T05:45:24.194Z,1.48
2023-03-31T05:46:27.087Z,1.58
2023-03-31T05:47:29.940Z,1.85
2023-03-31T05:48:32.841Z,2.79
2023-03-31T05:49:35.587Z,2.19
2023-03-31T05:50:38.663Z,1.32
2023-03-31T05:51:41.539Z,1.98
2023-03-31T05:52:44.410Z,1.27
2023-03-31T05:53:48.541Z,2.00
2023-03-31T05:54:51.595Z,1.78
2023-03-31T05:55:54.488Z,2.01
2023-03-31T05:56:57.320Z,1.78
2023-03-31T05:58:00.111Z,3.18
2023-03-31T05:59:03.270Z,3.98
2023-03-31T06:00:07.420Z,3.42
2023-03-31T06:01:11.121Z,1.22
2023-03-31T06:02:14.447Z,2.68
2023-03-31T06:03:17.284Z,3.19
2023-03-31T06:04:20.153Z,2.80
2023-03-31T06:05:22.799Z,1.43
2023-03-31T06:06:26.179Z,1.73
2023-03-31T06:07:28.954Z,6.91
2023-03-31T06:08:31.935Z,1.08
2023-03-31T06:09:34.819Z,1.38
2023-03-31T06:10:37.682Z,3.09
2023-03-31T06:11:40.667Z,2.05
2023-03-31T06:12:43.428Z,3.33
2023-03-31T06:13:46.303Z,2.78
2023-03-31T06:14:51.951Z,2.01
2023-03-31T06:15:55.001Z,1.25
2023-03-31T06:16:58.152Z,1.19
2023-03-31T06:18:00.790Z,1.92
2023-03-31T06:19:03.443Z,1.12
2023-03-31T06:20:19.788Z,1.06
2023-03-31T06:21:10.428Z,0.91
2023-03-31T06:22:13.599Z,1.15
2023-03-31T06:23:16.291Z,1.98
2023-03-31T06:24:18.870Z,4.42
2023-03-31T06:25:21.408Z,0.85
2023-03-31T06:26:24.076Z,0.70
2023-03-31T06:27:26.752Z,1.63
2023-03-31T06:28:29.523Z,1.41
2023-03-31T06:29:32.400Z,0.62
2023-03-31T06:30:35.476Z,1.29
2023-03-31T06:31:38.290Z,1.79
2023-03-31T06:32:43.091Z,2.48
2023-03-31T06:33:45.865Z,1.05
2023-03-31T06:34:48.725Z,0.91
2023-03-31T06:35:51.629Z,1.00
2023-03-31T06:36:54.578Z,0.88
2023-03-31T06:37:57.660Z,1.00
2023-03-31T06:39:00.418Z,1.87
2023-03-31T06:40:03.406Z,2.92
2023-03-31T06:41:06.534Z,0.47
2023-03-31T06:42:09.660Z,1.92
2023-03-31T06:43:12.635Z,3.01
2023-03-31T06:44:15.609Z,1.55
2023-03-31T06:45:18.629Z,3.23
2023-03-31T06:46:21.524Z,1.73
2023-03-31T06:47:24.411Z,1.09
2023-03-31T06:48:27.224Z,1.95
2023-03-31T06:49:30.092Z,2.78
2023-03-31T06:50:32.962Z,4.35
2023-03-31T06:51:35.938Z,2.98
2023-03-31T06:52:38.811Z,3.90
2023-03-31T06:53:42.220Z,3.54
2023-03-31T06:54:45.184Z,3.89
2023-03-31T06:55:47.951Z,1.78
2023-03-31T06:56:50.903Z,1.59
2023-03-31T06:57:53.698Z,1.05
2023-03-31T06:58:56.977Z,3.45
2023-03-31T06:59:59.763Z,4.00
2023-03-31T07:01:02.782Z,2.15
2023-03-31T07:02:05.697Z,2.28
2023-03-31T07:03:08.630Z,3.32
2023-03-31T07:04:11.459Z,2.95
2023-03-31T07:05:17.000Z,2.15
2023-03-31T07:06:19.866Z,1.54
2023-03-31T07:07:22.636Z,1.68
2023-03-31T07:08:25.426Z,2.91
2023-03-31T07:09:28.411Z,1.96
2023-03-31T07:10:31.272Z,1.85
2023-03-31T07:12:50.119Z,3.41
2023-03-31T07:13:53.008Z,1.72
2023-03-31T07:14:55.986Z,3.37
2023-03-31T07:15:58.768Z,2.61
2023-03-31T07:17:01.518Z,1.43
2023-03-31T07:18:04.542Z,1.32
2023-03-31T07:19:07.366Z,1.32
2023-03-31T07:20:10.348Z,1.51
2023-03-31T07:21:13.421Z,1.63
2023-03-31T07:22:16.512Z,2.08
2023-03-31T07:23:19.372Z,3.32
2023-03-31T07:25:36.004Z,2.24
2023-03-31T07:26:38.761Z,1.92
2023-03-31T07:27:41.625Z,1.32
2023-03-31T07:28:44.511Z,2.67
2023-03-31T07:29:47.478Z,1.82
2023-03-31T07:30:50.478Z,1.95
2023-03-31T07:31:53.407Z,2.15
2023-03-31T07:32:56.289Z,0.88
2023-03-31T07:35:07.279Z,2.03
2023-03-31T07:37:26.451Z,2.37
2023-03-31T07:38:29.311Z,3.08
2023-03-31T07:39:32.210Z,3.81
2023-03-31T07:40:35.063Z,4.55
2023-03-31T07:41:37.846Z,6.52
2023-03-31T07:43:56.704Z,2.80
2023-03-31T07:44:59.387Z,2.55
2023-03-31T07:46:02.087Z,2.98
2023-03-31T07:47:04.744Z,1.85
2023-03-31T07:48:07.334Z,2.39
2023-03-31T07:49:09.947Z,2.36
2023-03-31T07:50:13.128Z,1.90
2023-03-31T07:51:15.914Z,1.44
2023-03-31T07:52:18.997Z,2.81
2023-03-31T07:54:37.959Z,2.59
2023-03-31T07:55:40.510Z,2.88
2023-03-31T07:56:43.123Z,2.75
2023-03-31T07:57:45.846Z,2.52
2023-03-31T07:58:48.615Z,3.70
2023-03-31T07:59:51.196Z,3.56
2023-03-31T08:00:54.155Z,3.71
2023-03-31T08:03:12.963Z,3.03
2023-03-31T08:04:15.593Z,2.82
2023-03-31T08:05:18.365Z,2.50
2023-03-31T08:06:20.840Z,2.18
2023-03-31T08:07:24.209Z,2.29
2023-03-31T08:08:27.696Z,3.14
2023-03-31T08:09:31.010Z,2.59
2023-03-31T08:11:49.951Z,4.51
2023-03-31T08:12:52.519Z,7.48
2023-03-31T08:13:55.390Z,3.33
2023-03-31T08:16:06.476Z,2.47
2023-03-31T08:17:09.567Z,2.92
2023-03-31T08:18:12.877Z,2.58
2023-03-31T08:19:15.897Z,2.96
2023-03-31T08:20:18.690Z,2.70
2023-03-31T08:21:24.227Z,2.97
2023-03-31T08:22:26.376Z,3.19
2023-03-31T08:23:29.054Z,2.79
2023-03-31T08:24:31.940Z,4.34
2023-03-31T08:25:34.800Z,2.97
2023-03-31T08:26:39.194Z,3.82
2023-03-31T08:27:41.769Z,3.13
2023-03-31T08:30:00.526Z,3.77
2023-03-31T08:31:03.495Z,4.15
2023-03-31T08:32:06.390Z,3.14
2023-03-31T08:33:09.621Z,2.45
2023-03-31T08:34:12.749Z,2.78
2023-03-31T08:35:15.318Z,3.85
2023-03-31T08:36:18.517Z,5.21
2023-03-31T08:37:21.970Z,4.43
2023-03-31T08:38:25.285Z,4.90
2023-03-31T08:40:44.227Z,3.19
2023-03-31T08:41:46.991Z,3.99
2023-03-31T08:42:49.971Z,3.87
2023-03-31T08:43:52.633Z,4.51
2023-03-31T08:44:55.922Z,3.58
2023-03-31T08:45:58.749Z,3.33
2023-03-31T08:47:01.570Z,7.70
2023-03-31T08:48:07.079Z,5.99
2023-03-31T08:49:24.532Z,3.21
2023-03-31T08:50:27.443Z,2.88
2023-03-31T08:51:30.275Z,3.56
2023-03-31T08:52:33.151Z,4.08
2023-03-31T08:53:36.027Z,4.73
2023-03-31T08:54:39.192Z,4.96
2023-03-31T08:55:42.595Z,3.84
2023-03-31T08:56:46.002Z,3.31
2023-03-31T08:57:49.254Z,3.33
2023-03-31T08:58:52.544Z,4.82
2023-03-31T08:59:55.632Z,3.44
2023-03-31T09:00:58.419Z,4.17
2023-03-31T09:03:09.199Z,2.34
2023-03-31T09:04:13.103Z,2.56
2023-03-31T09:05:16.338Z,4.60
2023-03-31T09:07:35.013Z,3.25
2023-03-31T09:08:38.080Z,2.34
2023-03-31T09:09:40.757Z,3.18
2023-03-31T09:10:43.322Z,6.79
2023-03-31T09:11:46.488Z,6.08
2023-03-31T09:12:49.371Z,5.27
2023-03-31T09:13:51.967Z,4.93
2023-03-31T09:16:02.720Z,3.68
2023-03-31T09:18:13.288Z,3.09
2023-03-31T09:20:24.556Z,3.03
2023-03-31T09:21:27.830Z,2.35
2023-03-31T09:22:31.317Z,2.80
2023-03-31T09:23:34.313Z,2.74
2023-03-31T09:25:53.471Z,3.71
2023-03-31T09:26:56.241Z,2.77
2023-03-31T09:27:59.015Z,3.55
2023-03-31T09:29:01.887Z,2.41
2023-03-31T09:30:05.162Z,2.95
2023-03-31T09:31:08.570Z,2.16
2023-03-31T09:32:11.832Z,3.05
2023-03-31T09:33:15.013Z,3.65
2023-03-31T09:34:18.219Z,4.66
2023-03-31T09:35:21.084Z,2.09
2023-03-31T09:37:36.880Z,4.65
2023-03-31T09:38:40.040Z,4.35
2023-03-31T09:39:43.327Z,2.56
2023-03-31T09:40:46.298Z,2.56
2023-03-31T09:41:49.689Z,5.12
2023-03-31T09:42:52.973Z,5.56
2023-03-31T09:43:55.966Z,3.27
2023-03-31T09:44:58.727Z,3.33
2023-03-31T09:46:09.784Z,3.57
2023-03-31T09:47:06.766Z,2.36
2023-03-31T09:48:10.358Z,2.19
2023-03-31T09:49:13.202Z,3.95
2023-03-31T09:50:16.095Z,2.80
2023-03-31T09:52:35.349Z,2.30
2023-03-31T09:53:38.723Z,3.13
2023-03-31T09:54:41.498Z,4.20
2023-03-31T09:57:00.288Z,2.85
2023-03-31T09:58:03.129Z,2.38
2023-03-31T09:59:06.408Z,1.95
2023-03-31T10:00:10.932Z,2.56
2023-03-31T10:01:14.151Z,2.27
2023-03-31T10:02:17.479Z,3.41
2023-03-31T10:03:20.373Z,2.59
2023-03-31T10:04:23.151Z,2.35
2023-03-31T10:05:26.021Z,2.71
2023-03-31T10:06:28.890Z,2.15
2023-03-31T10:07:31.783Z,2.90
2023-03-31T10:08:34.659Z,1.48
2023-03-31T10:10:53.101Z,3.10
2023-03-31T10:11:56.103Z,2.82
2023-03-31T10:12:59.148Z,3.08
2023-03-31T10:14:02.434Z,2.63
2023-03-31T10:15:08.901Z,2.97
2023-03-31T10:16:11.795Z,4.65
2023-03-31T10:17:14.543Z,6.83
2023-03-31T10:18:17.672Z,6.56
2023-03-31T10:19:20.276Z,5.15
2023-03-31T10:20:23.245Z,5.18
2023-03-31T10:21:26.051Z,3.49
2023-03-31T10:23:45.288Z,3.35
2023-03-31T10:24:48.388Z,3.22
2023-03-31T10:25:51.152Z,2.52
2023-03-31T10:26:53.715Z,5.28
2023-03-31T10:27:56.504Z,3.63
2023-03-31T10:28:59.156Z,6.98
2023-03-31T10:30:01.854Z,3.84
2023-03-31T10:31:04.744Z,2.94
2023-03-31T10:33:22.599Z,3.60
2023-03-31T10:34:21.733Z,3.06
2023-03-31T10:36:40.474Z,3.36
2023-03-31T10:37:43.148Z,3.47
2023-03-31T10:38:45.720Z,5.88
2023-03-31T10:39:48.394Z,3.04
2023-03-31T10:40:51.099Z,2.77
2023-03-31T10:41:53.736Z,2.60
2023-03-31T10:42:56.316Z,2.33
2023-03-31T10:43:59.073Z,3.65
2023-03-31T10:45:01.953Z,3.57
2023-03-31T10:47:21.011Z,4.67
2023-03-31T10:48:24.070Z,3.03
2023-03-31T10:49:26.954Z,2.91
2023-03-31T10:50:30.147Z,2.72
2023-03-31T10:51:33.212Z,2.36
2023-03-31T10:52:36.071Z,3.00
2023-03-31T10:53:39.250Z,3.27
2023-03-31T10:54:42.230Z,3.42
2023-03-31T10:55:47.151Z,3.35
2023-03-31T10:56:51.380Z,4.77
2023-03-31T10:57:54.575Z,4.00
2023-03-31T11:00:13.403Z,4.96
2023-03-31T11:01:16.818Z,4.12
2023-03-31T11:02:20.140Z,3.62
2023-03-31T11:03:23.336Z,3.16
2023-03-31T11:04:26.537Z,3.72
2023-03-31T11:05:29.634Z,4.00
2023-03-31T11:06:32.611Z,3.71
2023-03-31T11:07:35.673Z,4.22
2023-03-31T11:08:39.055Z,3.68
2023-03-31T11:09:42.035Z,2.78
2023-03-31T11:10:45.323Z,3.94
2023-03-31T11:11:48.404Z,4.91
2023-03-31T11:12:51.282Z,3.71
2023-03-31T11:15:10.652Z,5.57
2023-03-31T11:16:13.702Z,5.84
2023-03-31T11:17:18.005Z,5.61
2023-03-31T11:18:20.812Z,4.35
2023-03-31T11:19:23.784Z,3.51
2023-03-31T11:20:27.815Z,3.85
2023-03-31T11:21:31.274Z,3.29
2023-03-31T11:22:34.672Z,3.25
2023-03-31T11:23:37.435Z,4.48
2023-03-31T11:25:48.297Z,2.76
2023-03-31T11:28:07.084Z,2.90
2023-03-31T11:29:09.777Z,2.54
2023-03-31T11:30:12.696Z,2.54
2023-03-31T11:31:15.364Z,4.06
2023-03-31T11:32:18.442Z,3.69
2023-03-31T11:33:21.346Z,5.64
2023-03-31T11:34:23.918Z,6.45
2023-03-31T11:35:26.800Z,3.68
2023-03-31T11:36:29.644Z,4.08
2023-03-31T11:37:32.436Z,2.99
2023-03-31T11:38:35.310Z,2.06
2023-03-31T11:39:38.154Z,2.92
2023-03-31T11:41:57.013Z,3.52
2023-03-31T11:43:00.253Z,3.52
2023-03-31T11:44:03.176Z,6.07
2023-03-31T11:45:05.949Z,6.88
2023-03-31T11:46:09.276Z,3.98
2023-03-31T11:47:12.215Z,4.21
2023-03-31T11:48:15.325Z,4.54
2023-03-31T11:50:37.619Z,4.04
2023-03-31T11:51:40.293Z,4.04
2023-03-31T11:52:42.828Z,4.85
2023-03-31T11:53:48.809Z,3.77
2023-03-31T11:54:51.691Z,2.93
2023-03-31T11:55:54.666Z,3.48
2023-03-31T11:56:57.592Z,3.28
2023-03-31T11:58:00.623Z,4.43
2023-03-31T11:59:03.800Z,4.20
2023-03-31T12:00:07.240Z,2.98
2023-03-31T12:01:09.985Z,3.03
2023-03-31T12:02:12.657Z,3.69
2023-03-31T12:04:31.890Z,2.64
2023-03-31T12:05:34.915Z,2.54
2023-03-31T12:06:37.743Z,5.17
2023-03-31T12:07:40.514Z,3.61
2023-03-31T12:08:43.696Z,2.53
2023-03-31T12:09:47.818Z,4.44
2023-03-31T12:10:52.673Z,3.89
2023-03-31T12:11:54.889Z,3.45
2023-03-31T12:12:58.672Z,3.52
2023-03-31T12:14:02.987Z,3.39
2023-03-31T12:15:08.126Z,3.14
2023-03-31T12:16:11.181Z,4.35
2023-03-31T12:17:14.375Z,4.81
2023-03-31T12:18:17.658Z,4.79
2023-03-31T12:20:36.340Z,3.73
2023-03-31T12:21:39.007Z,4.17
2023-03-31T12:22:41.826Z,6.97
2023-03-31T12:23:44.687Z,3.88
2023-03-31T12:24:47.721Z,2.92
2023-03-31T12:25:51.119Z,2.88
2023-03-31T12:26:54.187Z,4.01
2023-03-31T12:27:57.354Z,5.53
2023-03-31T12:29:00.534Z,3.88
2023-03-31T12:30:03.443Z,3.03
2023-03-31T12:31:06.431Z,4.67
2023-03-31T12:32:09.272Z,5.16
2023-03-31T12:34:20.547Z,4.94
2023-03-31T12:35:23.428Z,5.75
2023-03-31T12:36:26.231Z,4.72
2023-03-31T12:38:45.157Z,4.07
2023-03-31T12:39:48.335Z,4.23
2023-03-31T12:40:55.006Z,3.00
2023-03-31T12:41:57.766Z,3.94
2023-03-31T12:43:00.853Z,4.68
2023-03-31T12:44:03.828Z,5.75
2023-03-31T12:45:07.002Z,4.04
2023-03-31T12:46:09.957Z,4.62
2023-03-31T12:47:12.760Z,3.38
2023-03-31T12:48:16.458Z,2.33
2023-03-31T12:49:19.633Z,3.78
2023-03-31T12:50:22.404Z,3.22
2023-03-31T12:52:41.369Z,3.71
2023-03-31T12:53:44.156Z,4.05
2023-03-31T12:54:47.322Z,4.83
2023-03-31T12:55:50.509Z,4.42
2023-03-31T12:56:53.404Z,6.00
2023-03-31T12:57:56.468Z,4.62
2023-03-31T12:58:59.738Z,4.19
2023-03-31T13:00:02.621Z,2.30
2023-03-31T13:01:05.788Z,3.49
2023-03-31T13:02:08.823Z,4.45
2023-03-31T13:04:27.542Z,4.19
2023-03-31T13:05:30.201Z,5.98
2023-03-31T13:06:33.075Z,3.12
2023-03-31T13:08:43.846Z,4.33
2023-03-31T13:09:46.822Z,3.37
2023-03-31T13:10:49.680Z,4.25
2023-03-31T13:11:52.478Z,3.33
2023-03-31T13:12:55.331Z,4.13
2023-03-31T13:16:18.841Z,3.49
2023-03-31T13:17:21.996Z,3.64
2023-03-31T13:18:24.759Z,3.02
2023-03-31T13:19:27.640Z,5.85
2023-03-31T13:20:30.922Z,10.77
2023-03-31T13:21:34.014Z,5.45
2023-03-31T13:22:37.081Z,7.11
2023-03-31T13:23:40.061Z,6.04
2023-03-31T13:24:43.042Z,5.88
2023-03-31T13:25:46.212Z,3.56
2023-03-31T13:28:05.701Z,2.48
2023-03-31T13:29:09.480Z,2.92
2023-03-31T13:30:12.669Z,3.49
2023-03-31T13:31:15.568Z,3.55
2023-03-31T13:32:18.513Z,3.77
2023-03-31T13:33:21.182Z,4.64
2023-03-31T13:34:24.272Z,3.67
2023-03-31T13:35:27.248Z,3.84
2023-03-31T13:36:30.030Z,2.86
2023-03-31T13:37:32.780Z,4.31
2023-03-31T13:39:51.781Z,3.70
2023-03-31T13:40:54.829Z,2.83
2023-03-31T13:41:57.492Z,2.96
2023-03-31T13:43:00.400Z,2.38
2023-03-31T13:44:03.245Z,3.93
2023-03-31T13:45:06.381Z,2.32
2023-03-31T13:46:09.612Z,2.95
2023-03-31T13:47:12.683Z,2.14
2023-03-31T13:48:15.701Z,2.48
2023-03-31T13:49:18.432Z,3.46
2023-03-31T13:51:37.596Z,3.09
2023-03-31T13:52:40.706Z,2.18
2023-03-31T13:53:43.653Z,2.01
2023-03-31T13:54:46.529Z,2.41
2023-03-31T13:55:49.299Z,2.78
2023-03-31T13:56:51.998Z,2.68
2023-03-31T13:57:55.054Z,2.13
2023-03-31T13:58:57.934Z,2.72
2023-03-31T14:00:01.043Z,3.69
2023-03-31T14:02:19.991Z,2.47
2023-03-31T14:03:22.926Z,2.17
2023-03-31T14:04:25.711Z,2.88
2023-03-31T14:05:28.790Z,2.94
2023-03-31T14:06:31.569Z,2.87
2023-03-31T14:10:06.935Z,3.63
2023-03-31T14:11:09.681Z,3.66
2023-03-31T14:12:12.561Z,5.33
2023-03-31T14:13:18.232Z,3.64
2023-03-31T14:14:19.846Z,2.11
2023-03-31T14:15:22.628Z,2.70
2023-03-31T14:19:01.125Z,3.56
2023-03-31T14:21:19.790Z,3.78
2023-03-31T14:22:22.466Z,4.15
2023-03-31T14:23:25.444Z,3.15
2023-03-31T14:24:28.630Z,3.36
2023-03-31T14:25:31.814Z,2.78
2023-03-31T14:26:34.579Z,3.49
2023-03-31T14:27:37.981Z,2.83
2023-03-31T14:28:40.948Z,3.31
2023-03-31T14:29:44.270Z,2.37
2023-03-31T14:30:47.211Z,3.13
2023-03-31T14:31:50.144Z,3.84
2023-03-31T14:32:53.186Z,3.94
2023-03-31T14:33:55.934Z,3.18
2023-03-31T14:34:58.739Z,3.15
2023-03-31T14:36:01.697Z,2.59
2023-03-31T14:37:04.694Z,3.20
2023-03-31T14:38:07.838Z,3.68
2023-03-31T14:39:10.822Z,2.98
2023-03-31T14:40:13.804Z,2.88
2023-03-31T14:41:16.981Z,4.16
2023-03-31T14:42:19.761Z,3.27
2023-03-31T14:43:22.832Z,5.11
2023-03-31T14:44:25.815Z,8.06
2023-03-31T14:45:28.895Z,4.00
2023-03-31T14:46:32.029Z,4.54
2023-03-31T14:47:35.123Z,5.92
2023-03-31T14:48:38.234Z,8.52
2023-03-31T14:49:41.002Z,10.30
2023-03-31T14:52:00.283Z,6.65
2023-03-31T14:53:03.149Z,7.36
2023-03-31T14:54:05.919Z,5.75
2023-03-31T14:55:08.583Z,12.38
2023-03-31T14:56:11.354Z,8.25
2023-03-31T14:57:14.664Z,6.18
2023-03-31T14:58:17.823Z,5.70
2023-03-31T14:59:20.903Z,2.22